KDEH/DEH METAR and TAF weather

Enter ICAO airport designator
Station Type Date Time Source
KDEH METAR 2020/05/30 05:55 UTC NOAA

KDEH 300555Z AUTO 00000KT 10SM CLR 11/09 A3017 RMK AO2


Station Type Date Time Source
KDEH Decoded METAR 2020/05/30 05:55 UTC NOAA

Decorah, IA, United States (KDEH) 43-17N 091-44W
May 30, 2020 - 01:55 AM EDT / 2020.05.30 0555 UTC
Wind: Calm:0
Visibility: 10 mile(s):0
Sky conditions: clear
Temperature: 51 F (11 C)
Dew Point: 48 F (9 C)
Relative Humidity: 87%
Pressure (altimeter): 30.17 in. Hg (1021 hPa)
ob: KDEH 300555Z AUTO 00000KT 10SM CLR 11/09 A3017 RMK AO2
cycle: 6

Station Type Date Time Source
KDEH TAF UTC NOAA

Error!

Example: see airport list